Terminal Aerodrome Forecast
Issued by NWS Duluth, MN

Home | Current Version | Previous Version | Text Only | Print | Product List | Glossary On
Versions: 1 2 3 4 5 6 7 8 9 10 11 12 13 14 15
959
FTUS43 KDLH 132340
TAFDLH
TAF
KDLH 132340Z 1400/1424 17005KT P6SM SKC
     FM140800 15008KT P6SM BKN120
     FM141500 16010KT P6SM OVC025
     FM141700 16010KT P6SM VCSH SCT015 OVC020
     FM141900 16012KT 5SM -SN OVC015=

USA.gov is the U.S. government's official web portal to all federal, state and local government web resources and services.